sensor_id;sensor_type;location;lat;lon;timestamp;P1;durP1;ratioP1;P2;durP2;ratioP2
12591;SDS011;6361;52.120;5.108;2022-10-24T00:01:12;7.75;;;2.72;;
12591;SDS011;6361;52.120;5.108;2022-10-24T00:03:39;11.40;;;2.92;;
12591;SDS011;6361;52.120;5.108;2022-10-24T00:06:05;12.50;;;2.95;;
12591;SDS011;6361;52.120;5.108;2022-10-24T00:08:32;8.02;;;2.97;;
12591;SDS011;6361;52.120;5.108;2022-10-24T00:10:58;8.20;;;3.20;;
12591;SDS011;6361;52.120;5.108;2022-10-24T00:13:24;8.07;;;2.70;;
12591;SDS011;6361;52.120;5.108;2022-10-24T00:15:49;8.13;;;2.95;;
12591;SDS011;6361;52.120;5.108;2022-10-24T00:18:15;10.52;;;2.95;;
12591;SDS011;6361;52.120;5.108;2022-10-24T00:20:40;10.82;;;3.03;;
12591;SDS011;6361;52.120;5.108;2022-10-24T00:23:06;11.07;;;3.00;;
12591;SDS011;6361;52.120;5.108;2022-10-24T00:25:32;15.82;;;3.28;;
12591;SDS011;6361;52.120;5.108;2022-10-24T00:27:57;9.50;;;3.30;;
12591;SDS011;6361;52.120;5.108;2022-10-24T00:30:22;11.48;;;3.10;;
12591;SDS011;6361;52.120;5.108;2022-10-24T00:32:49;8.70;;;3.33;;
12591;SDS011;6361;52.120;5.108;2022-10-24T00:35:15;10.30;;;3.15;;
12591;SDS011;6361;52.120;5.108;2022-10-24T00:37:40;11.27;;;2.95;;
12591;SDS011;6361;52.120;5.108;2022-10-24T00:40:06;9.80;;;3.25;;
12591;SDS011;6361;52.120;5.108;2022-10-24T00:42:32;12.23;;;3.30;;
12591;SDS011;6361;52.120;5.108;2022-10-24T00:44:57;8.15;;;2.88;;
12591;SDS011;6361;52.120;5.108;2022-10-24T00:47:23;11.45;;;3.05;;
12591;SDS011;6361;52.120;5.108;2022-10-24T00:52:26;10.50;;;2.67;;
12591;SDS011;6361;52.120;5.108;2022-10-24T00:54:54;9.15;;;3.20;;
12591;SDS011;6361;52.120;5.108;2022-10-24T00:57:26;15.20;;;2.88;;
12591;SDS011;6361;52.120;5.108;2022-10-24T00:59:56;8.55;;;2.75;;
12591;SDS011;6361;52.120;5.108;2022-10-24T01:02:24;11.52;;;2.97;;
12591;SDS011;6361;52.120;5.108;2022-10-24T01:04:50;10.43;;;2.92;;
12591;SDS011;6361;52.120;5.108;2022-10-24T01:15:04;7.95;;;2.55;;
12591;SDS011;6361;52.120;5.108;2022-10-24T01:17:42;7.63;;;2.63;;
12591;SDS011;6361;52.120;5.108;2022-10-24T01:20:20;11.75;;;2.80;;
12591;SDS011;6361;52.120;5.108;2022-10-24T01:31:20;9.07;;;2.53;;
12591;SDS011;6361;52.120;5.108;2022-10-24T01:33:55;11.50;;;2.97;;
12591;SDS011;6361;52.120;5.108;2022-10-24T01:37:12;12.57;;;2.85;;
12591;SDS011;6361;52.120;5.108;2022-10-24T01:39:20;7.75;;;2.70;;
12591;SDS011;6361;52.120;5.108;2022-10-24T01:41:46;8.75;;;2.35;;
12591;SDS011;6361;52.120;5.108;2022-10-24T01:44:26;11.18;;;2.58;;
12591;SDS011;6361;52.120;5.108;2022-10-24T01:46:59;11.52;;;2.33;;
12591;SDS011;6361;52.120;5.108;2022-10-24T01:49:28;7.50;;;2.42;;
12591;SDS011;6361;52.120;5.108;2022-10-24T01:51:58;10.02;;;2.72;;
12591;SDS011;6361;52.120;5.108;2022-10-24T01:54:24;7.40;;;2.38;;
12591;SDS011;6361;52.120;5.108;2022-10-24T01:56:50;9.20;;;2.53;;
12591;SDS011;6361;52.120;5.108;2022-10-24T02:01:52;7.93;;;2.25;;
12591;SDS011;6361;52.120;5.108;2022-10-24T02:04:50;8.93;;;2.78;;
12591;SDS011;6361;52.120;5.108;2022-10-24T02:07:22;11.10;;;2.83;;
12591;SDS011;6361;52.120;5.108;2022-10-24T02:09:50;11.50;;;2.45;;
12591;SDS011;6361;52.120;5.108;2022-10-24T02:12:17;7.65;;;3.20;;
12591;SDS011;6361;52.120;5.108;2022-10-24T02:14:55;9.77;;;2.40;;
12591;SDS011;6361;52.120;5.108;2022-10-24T02:17:24;7.13;;;2.40;;
12591;SDS011;6361;52.120;5.108;2022-10-24T02:19:52;8.45;;;2.45;;
12591;SDS011;6361;52.120;5.108;2022-10-24T02:22:28;9.35;;;2.50;;
12591;SDS011;6361;52.120;5.108;2022-10-24T02:27:38;8.23;;;2.33;;
12591;SDS011;6361;52.120;5.108;2022-10-24T02:30:10;5.35;;;2.30;;
12591;SDS011;6361;52.120;5.108;2022-10-24T02:32:43;12.80;;;2.80;;
12591;SDS011;6361;52.120;5.108;2022-10-24T02:35:12;8.13;;;2.30;;
12591;SDS011;6361;52.120;5.108;2022-10-24T02:37:41;8.10;;;2.28;;
12591;SDS011;6361;52.120;5.108;2022-10-24T02:40:08;6.18;;;2.25;;
12591;SDS011;6361;52.120;5.108;2022-10-24T02:42:35;7.88;;;2.50;;
12591;SDS011;6361;52.120;5.108;2022-10-24T02:45:02;9.13;;;2.50;;
12591;SDS011;6361;52.120;5.108;2022-10-24T02:47:28;15.05;;;2.70;;
12591;SDS011;6361;52.120;5.108;2022-10-24T02:49:55;8.77;;;2.35;;
12591;SDS011;6361;52.120;5.108;2022-10-24T02:52:21;6.72;;;2.45;;
12591;SDS011;6361;52.120;5.108;2022-10-24T02:54:48;3.85;;;1.98;;
12591;SDS011;6361;52.120;5.108;2022-10-24T02:57:14;6.18;;;2.45;;
12591;SDS011;6361;52.120;5.108;2022-10-24T02:59:39;9.88;;;2.38;;
12591;SDS011;6361;52.120;5.108;2022-10-24T03:02:07;9.60;;;2.30;;
12591;SDS011;6361;52.120;5.108;2022-10-24T03:04:32;7.45;;;2.35;;
12591;SDS011;6361;52.120;5.108;2022-10-24T03:06:58;11.13;;;2.25;;
12591;SDS011;6361;52.120;5.108;2022-10-24T03:09:23;6.93;;;2.15;;
12591;SDS011;6361;52.120;5.108;2022-10-24T03:11:48;5.47;;;2.15;;
12591;SDS011;6361;52.120;5.108;2022-10-24T03:14:14;10.00;;;2.72;;
12591;SDS011;6361;52.120;5.108;2022-10-24T03:16:39;8.57;;;2.10;;
12591;SDS011;6361;52.120;5.108;2022-10-24T03:19:04;7.65;;;2.10;;
12591;SDS011;6361;52.120;5.108;2022-10-24T03:21:30;4.40;;;1.67;;
12591;SDS011;6361;52.120;5.108;2022-10-24T03:23:55;5.53;;;1.88;;
12591;SDS011;6361;52.120;5.108;2022-10-24T03:26:21;6.25;;;2.40;;
12591;SDS011;6361;52.120;5.108;2022-10-24T03:28:46;13.00;;;2.30;;
12591;SDS011;6361;52.120;5.108;2022-10-24T03:31:12;10.02;;;2.30;;
12591;SDS011;6361;52.120;5.108;2022-10-24T03:33:37;11.10;;;1.92;;
12591;SDS011;6361;52.120;5.108;2022-10-24T03:36:02;8.98;;;2.13;;
12591;SDS011;6361;52.120;5.108;2022-10-24T03:38:29;9.20;;;1.70;;
12591;SDS011;6361;52.120;5.108;2022-10-24T03:40:54;6.28;;;1.90;;
12591;SDS011;6361;52.120;5.108;2022-10-24T03:43:20;8.27;;;2.10;;
12591;SDS011;6361;52.120;5.108;2022-10-24T03:45:45;8.35;;;1.80;;
12591;SDS011;6361;52.120;5.108;2022-10-24T03:48:10;7.65;;;1.92;;
12591;SDS011;6361;52.120;5.108;2022-10-24T03:50:36;11.27;;;2.10;;
12591;SDS011;6361;52.120;5.108;2022-10-24T03:53:01;8.55;;;1.70;;
12591;SDS011;6361;52.120;5.108;2022-10-24T03:55:27;9.55;;;1.58;;
12591;SDS011;6361;52.120;5.108;2022-10-24T03:57:53;10.70;;;1.95;;
12591;SDS011;6361;52.120;5.108;2022-10-24T04:00:19;6.88;;;1.77;;
12591;SDS011;6361;52.120;5.108;2022-10-24T04:02:45;5.45;;;1.52;;
12591;SDS011;6361;52.120;5.108;2022-10-24T04:05:10;5.63;;;1.60;;
12591;SDS011;6361;52.120;5.108;2022-10-24T04:07:36;8.27;;;1.80;;
12591;SDS011;6361;52.120;5.108;2022-10-24T04:10:02;11.88;;;1.70;;
12591;SDS011;6361;52.120;5.108;2022-10-24T04:12:28;6.97;;;1.52;;
12591;SDS011;6361;52.120;5.108;2022-10-24T04:14:54;9.82;;;1.80;;
12591;SDS011;6361;52.120;5.108;2022-10-24T04:17:19;9.77;;;1.88;;
12591;SDS011;6361;52.120;5.108;2022-10-24T04:19:44;10.13;;;1.70;;
12591;SDS011;6361;52.120;5.108;2022-10-24T04:22:10;9.25;;;1.42;;
12591;SDS011;6361;52.120;5.108;2022-10-24T04:24:35;9.60;;;1.42;;
12591;SDS011;6361;52.120;5.108;2022-10-24T04:27:03;10.45;;;1.52;;
12591;SDS011;6361;52.120;5.108;2022-10-24T04:29:29;16.30;;;1.65;;
12591;SDS011;6361;52.120;5.108;2022-10-24T04:31:54;9.23;;;1.83;;
12591;SDS011;6361;52.120;5.108;2022-10-24T04:34:20;7.47;;;1.70;;
12591;SDS011;6361;52.120;5.108;2022-10-24T04:36:45;6.53;;;1.17;;
12591;SDS011;6361;52.120;5.108;2022-10-24T04:39:10;6.75;;;1.35;;
12591;SDS011;6361;52.120;5.108;2022-10-24T04:41:36;8.95;;;1.60;;
12591;SDS011;6361;52.120;5.108;2022-10-24T04:44:01;9.13;;;1.30;;
12591;SDS011;6361;52.120;5.108;2022-10-24T04:46:26;10.30;;;1.50;;
12591;SDS011;6361;52.120;5.108;2022-10-24T04:48:52;9.30;;;1.40;;
12591;SDS011;6361;52.120;5.108;2022-10-24T04:51:17;7.18;;;1.20;;
12591;SDS011;6361;52.120;5.108;2022-10-24T04:53:43;16.48;;;1.90;;
12591;SDS011;6361;52.120;5.108;2022-10-24T04:56:09;5.65;;;1.20;;
12591;SDS011;6361;52.120;5.108;2022-10-24T04:58:34;11.90;;;1.40;;
12591;SDS011;6361;52.120;5.108;2022-10-24T05:00:59;6.57;;;1.35;;
12591;SDS011;6361;52.120;5.108;2022-10-24T05:03:25;8.60;;;1.55;;
12591;SDS011;6361;52.120;5.108;2022-10-24T05:05:50;9.68;;;1.35;;
12591;SDS011;6361;52.120;5.108;2022-10-24T05:08:16;7.72;;;1.40;;
12591;SDS011;6361;52.120;5.108;2022-10-24T05:10:41;6.97;;;1.30;;
12591;SDS011;6361;52.120;5.108;2022-10-24T05:13:07;7.45;;;1.35;;
12591;SDS011;6361;52.120;5.108;2022-10-24T05:15:32;7.80;;;1.42;;
12591;SDS011;6361;52.120;5.108;2022-10-24T05:17:59;8.05;;;1.33;;
12591;SDS011;6361;52.120;5.108;2022-10-24T05:20:25;6.32;;;1.70;;
12591;SDS011;6361;52.120;5.108;2022-10-24T05:22:50;8.25;;;1.38;;
12591;SDS011;6361;52.120;5.108;2022-10-24T05:25:16;6.88;;;1.35;;
12591;SDS011;6361;52.120;5.108;2022-10-24T05:27:41;4.85;;;1.35;;
12591;SDS011;6361;52.120;5.108;2022-10-24T05:30:07;12.55;;;1.65;;
12591;SDS011;6361;52.120;5.108;2022-10-24T05:32:32;8.27;;;1.45;;
12591;SDS011;6361;52.120;5.108;2022-10-24T05:34:58;7.43;;;1.60;;
12591;SDS011;6361;52.120;5.108;2022-10-24T05:37:24;5.00;;;1.42;;
12591;SDS011;6361;52.120;5.108;2022-10-24T05:39:50;7.47;;;1.48;;
12591;SDS011;6361;52.120;5.108;2022-10-24T05:42:15;7.55;;;1.77;;
12591;SDS011;6361;52.120;5.108;2022-10-24T05:44:41;7.70;;;1.30;;
12591;SDS011;6361;52.120;5.108;2022-10-24T05:47:06;8.20;;;1.80;;
12591;SDS011;6361;52.120;5.108;2022-10-24T05:49:32;6.68;;;1.30;;
12591;SDS011;6361;52.120;5.108;2022-10-24T05:51:57;7.47;;;1.80;;
12591;SDS011;6361;52.120;5.108;2022-10-24T05:54:23;7.38;;;1.40;;
12591;SDS011;6361;52.120;5.108;2022-10-24T05:56:48;9.30;;;1.50;;
12591;SDS011;6361;52.120;5.108;2022-10-24T05:59:14;10.13;;;1.65;;
12591;SDS011;6361;52.120;5.108;2022-10-24T06:01:39;8.68;;;1.30;;
12591;SDS011;6361;52.120;5.108;2022-10-24T06:04:05;5.32;;;1.33;;
12591;SDS011;6361;52.120;5.108;2022-10-24T06:06:30;11.10;;;1.40;;
12591;SDS011;6361;52.120;5.108;2022-10-24T06:08:56;7.35;;;1.40;;
12591;SDS011;6361;52.120;5.108;2022-10-24T06:11:21;9.07;;;1.48;;
12591;SDS011;6361;52.120;5.108;2022-10-24T06:13:47;8.98;;;1.70;;
12591;SDS011;6361;52.120;5.108;2022-10-24T06:16:12;7.90;;;1.65;;
12591;SDS011;6361;52.120;5.108;2022-10-24T06:18:38;7.90;;;1.23;;
12591;SDS011;6361;52.120;5.108;2022-10-24T06:21:05;5.68;;;1.35;;
12591;SDS011;6361;52.120;5.108;2022-10-24T06:23:32;8.38;;;1.58;;
12591;SDS011;6361;52.120;5.108;2022-10-24T06:25:57;8.60;;;1.42;;
12591;SDS011;6361;52.120;5.108;2022-10-24T06:28:22;9.60;;;1.38;;
12591;SDS011;6361;52.120;5.108;2022-10-24T06:30:48;9.45;;;1.55;;
12591;SDS011;6361;52.120;5.108;2022-10-24T06:33:14;8.23;;;1.00;;
12591;SDS011;6361;52.120;5.108;2022-10-24T06:35:39;6.93;;;1.60;;
12591;SDS011;6361;52.120;5.108;2022-10-24T06:38:05;7.78;;;1.42;;
12591;SDS011;6361;52.120;5.108;2022-10-24T06:40:30;11.32;;;1.67;;
12591;SDS011;6361;52.120;5.108;2022-10-24T06:42:56;10.60;;;2.17;;
12591;SDS011;6361;52.120;5.108;2022-10-24T06:45:21;8.65;;;1.38;;
12591;SDS011;6361;52.120;5.108;2022-10-24T06:47:48;7.90;;;1.60;;
12591;SDS011;6361;52.120;5.108;2022-10-24T06:50:14;9.77;;;1.38;;
12591;SDS011;6361;52.120;5.108;2022-10-24T06:52:39;11.18;;;1.85;;
12591;SDS011;6361;52.120;5.108;2022-10-24T06:55:04;6.43;;;1.30;;
12591;SDS011;6361;52.120;5.108;2022-10-24T06:57:30;8.30;;;1.75;;
12591;SDS011;6361;52.120;5.108;2022-10-24T06:59:56;10.35;;;3.45;;
12591;SDS011;6361;52.120;5.108;2022-10-24T07:02:21;8.25;;;1.48;;
12591;SDS011;6361;52.120;5.108;2022-10-24T07:04:47;13.65;;;1.90;;
12591;SDS011;6361;52.120;5.108;2022-10-24T07:07:13;9.98;;;1.70;;
12591;SDS011;6361;52.120;5.108;2022-10-24T07:09:42;7.13;;;1.50;;
12591;SDS011;6361;52.120;5.108;2022-10-24T07:12:07;14.48;;;2.13;;
12591;SDS011;6361;52.120;5.108;2022-10-24T07:14:33;10.13;;;1.67;;
12591;SDS011;6361;52.120;5.108;2022-10-24T07:16:58;9.55;;;1.80;;
12591;SDS011;6361;52.120;5.108;2022-10-24T07:19:24;10.07;;;1.75;;
12591;SDS011;6361;52.120;5.108;2022-10-24T07:21:49;11.05;;;1.85;;
12591;SDS011;6361;52.120;5.108;2022-10-24T07:24:15;13.63;;;1.80;;
12591;SDS011;6361;52.120;5.108;2022-10-24T07:26:40;12.05;;;2.10;;
12591;SDS011;6361;52.120;5.108;2022-10-24T07:29:05;11.93;;;2.08;;
12591;SDS011;6361;52.120;5.108;2022-10-24T07:31:32;12.00;;;2.00;;
12591;SDS011;6361;52.120;5.108;2022-10-24T07:33:59;9.25;;;1.58;;
12591;SDS011;6361;52.120;5.108;2022-10-24T07:36:28;12.25;;;2.10;;
12591;SDS011;6361;52.120;5.108;2022-10-24T07:38:57;9.85;;;2.28;;
12591;SDS011;6361;52.120;5.108;2022-10-24T07:41:24;10.60;;;1.85;;
12591;SDS011;6361;52.120;5.108;2022-10-24T07:43:50;10.57;;;1.90;;
12591;SDS011;6361;52.120;5.108;2022-10-24T07:46:16;11.23;;;2.08;;
12591;SDS011;6361;52.120;5.108;2022-10-24T07:48:42;7.95;;;1.80;;
12591;SDS011;6361;52.120;5.108;2022-10-24T07:51:09;15.77;;;1.95;;
12591;SDS011;6361;52.120;5.108;2022-10-24T07:53:36;8.65;;;2.20;;
12591;SDS011;6361;52.120;5.108;2022-10-24T07:56:01;8.30;;;1.73;;
12591;SDS011;6361;52.120;5.108;2022-10-24T07:58:30;12.77;;;2.10;;
12591;SDS011;6361;52.120;5.108;2022-10-24T08:01:01;8.25;;;1.85;;
12591;SDS011;6361;52.120;5.108;2022-10-24T08:03:29;8.63;;;1.80;;
12591;SDS011;6361;52.120;5.108;2022-10-24T08:05:55;9.93;;;1.77;;
12591;SDS011;6361;52.120;5.108;2022-10-24T08:08:21;10.68;;;1.90;;
12591;SDS011;6361;52.120;5.108;2022-10-24T08:10:46;10.63;;;2.03;;
12591;SDS011;6361;52.120;5.108;2022-10-24T08:13:12;9.60;;;2.00;;
12591;SDS011;6361;52.120;5.108;2022-10-24T08:15:37;9.57;;;2.53;;
12591;SDS011;6361;52.120;5.108;2022-10-24T08:18:02;8.75;;;1.63;;
12591;SDS011;6361;52.120;5.108;2022-10-24T08:20:28;11.27;;;2.08;;
12591;SDS011;6361;52.120;5.108;2022-10-24T08:22:54;14.00;;;2.00;;
12591;SDS011;6361;52.120;5.108;2022-10-24T08:25:19;12.88;;;1.70;;
12591;SDS011;6361;52.120;5.108;2022-10-24T08:27:45;9.65;;;1.70;;
12591;SDS011;6361;52.120;5.108;2022-10-24T08:30:11;8.15;;;2.00;;
12591;SDS011;6361;52.120;5.108;2022-10-24T08:32:36;10.63;;;1.85;;
12591;SDS011;6361;52.120;5.108;2022-10-24T08:35:03;13.07;;;1.77;;
12591;SDS011;6361;52.120;5.108;2022-10-24T08:37:29;10.10;;;1.90;;
12591;SDS011;6361;52.120;5.108;2022-10-24T08:39:54;10.55;;;1.65;;
12591;SDS011;6361;52.120;5.108;2022-10-24T08:42:21;9.73;;;1.90;;
12591;SDS011;6361;52.120;5.108;2022-10-24T08:44:48;13.48;;;2.40;;
12591;SDS011;6361;52.120;5.108;2022-10-24T08:50:02;8.75;;;2.03;;
12591;SDS011;6361;52.120;5.108;2022-10-24T08:52:32;8.05;;;2.00;;
12591;SDS011;6361;52.120;5.108;2022-10-24T08:55:05;8.55;;;1.90;;
12591;SDS011;6361;52.120;5.108;2022-10-24T08:57:37;12.73;;;2.50;;
12591;SDS011;6361;52.120;5.108;2022-10-24T09:00:07;8.10;;;1.75;;
12591;SDS011;6361;52.120;5.108;2022-10-24T09:02:41;10.52;;;2.20;;
12591;SDS011;6361;52.120;5.108;2022-10-24T09:07:38;12.32;;;1.80;;
12591;SDS011;6361;52.120;5.108;2022-10-24T09:10:12;8.70;;;1.70;;
12591;SDS011;6361;52.120;5.108;2022-10-24T09:12:41;9.80;;;1.80;;
12591;SDS011;6361;52.120;5.108;2022-10-24T09:15:23;10.50;;;1.70;;
12591;SDS011;6361;52.120;5.108;2022-10-24T09:17:50;12.98;;;2.05;;
12591;SDS011;6361;52.120;5.108;2022-10-24T09:22:47;10.23;;;1.67;;
12591;SDS011;6361;52.120;5.108;2022-10-24T09:25:17;10.73;;;1.90;;
12591;SDS011;6361;52.120;5.108;2022-10-24T09:27:52;13.88;;;2.05;;
12591;SDS011;6361;52.120;5.108;2022-10-24T09:30:21;9.52;;;2.15;;
12591;SDS011;6361;52.120;5.108;2022-10-24T09:32:51;10.88;;;2.20;;
12591;SDS011;6361;52.120;5.108;2022-10-24T09:35:24;9.43;;;1.88;;
12591;SDS011;6361;52.120;5.108;2022-10-24T09:37:52;12.70;;;2.10;;
12591;SDS011;6361;52.120;5.108;2022-10-24T09:47:59;9.57;;;1.73;;
12591;SDS011;6361;52.120;5.108;2022-10-24T09:50:26;6.30;;;1.48;;
12591;SDS011;6361;52.120;5.108;2022-10-24T09:52:53;8.32;;;1.98;;
12591;SDS011;6361;52.120;5.108;2022-10-24T09:55:21;12.75;;;2.20;;
12591;SDS011;6361;52.120;5.108;2022-10-24T09:57:52;12.98;;;1.88;;
12591;SDS011;6361;52.120;5.108;2022-10-24T10:05:23;9.68;;;1.85;;
12591;SDS011;6361;52.120;5.108;2022-10-24T10:07:49;11.57;;;1.98;;
12591;SDS011;6361;52.120;5.108;2022-10-24T10:10:26;9.40;;;1.83;;
12591;SDS011;6361;52.120;5.108;2022-10-24T10:13:01;11.32;;;1.67;;
12591;SDS011;6361;52.120;5.108;2022-10-24T10:15:37;10.18;;;1.80;;
12591;SDS011;6361;52.120;5.108;2022-10-24T10:18:08;10.63;;;1.73;;
12591;SDS011;6361;52.120;5.108;2022-10-24T10:23:42;7.13;;;1.52;;
12591;SDS011;6361;52.120;5.108;2022-10-24T10:28:42;6.63;;;1.60;;
12591;SDS011;6361;52.120;5.108;2022-10-24T10:31:16;9.32;;;1.60;;
12591;SDS011;6361;52.120;5.108;2022-10-24T10:33:47;10.27;;;2.00;;
12591;SDS011;6361;52.120;5.108;2022-10-24T10:38:49;9.95;;;1.25;;
12591;SDS011;6361;52.120;5.108;2022-10-24T10:44:09;9.10;;;1.90;;
12591;SDS011;6361;52.120;5.108;2022-10-24T10:49:27;9.07;;;1.55;;
12591;SDS011;6361;52.120;5.108;2022-10-24T10:57:02;7.70;;;1.90;;
12591;SDS011;6361;52.120;5.108;2022-10-24T11:10:21;11.38;;;1.70;;
12591;SDS011;6361;52.120;5.108;2022-10-24T11:12:48;9.18;;;1.67;;
12591;SDS011;6361;52.120;5.108;2022-10-24T11:15:15;9.68;;;1.40;;
12591;SDS011;6361;52.120;5.108;2022-10-24T11:17:54;7.43;;;1.50;;
12591;SDS011;6361;52.120;5.108;2022-10-24T11:20:28;11.60;;;1.90;;
12591;SDS011;6361;52.120;5.108;2022-10-24T11:25:38;8.02;;;1.83;;
12591;SDS011;6361;52.120;5.108;2022-10-24T11:28:09;5.35;;;1.40;;
12591;SDS011;6361;52.120;5.108;2022-10-24T11:33:27;7.25;;;1.83;;
12591;SDS011;6361;52.120;5.108;2022-10-24T11:38:50;8.77;;;2.20;;
12591;SDS011;6361;52.120;5.108;2022-10-24T11:41:29;7.80;;;2.25;;
12591;SDS011;6361;52.120;5.108;2022-10-24T11:44:00;9.20;;;1.95;;
12591;SDS011;6361;52.120;5.108;2022-10-24T11:46:38;10.00;;;2.20;;
12591;SDS011;6361;52.120;5.108;2022-10-24T11:49:27;8.70;;;1.92;;
12591;SDS011;6361;52.120;5.108;2022-10-24T11:51:56;13.95;;;2.40;;
12591;SDS011;6361;52.120;5.108;2022-10-24T11:57:38;9.63;;;1.95;;
12591;SDS011;6361;52.120;5.108;2022-10-24T12:00:13;10.25;;;2.40;;
12591;SDS011;6361;52.120;5.108;2022-10-24T12:05:49;9.23;;;1.88;;
12591;SDS011;6361;52.120;5.108;2022-10-24T12:08:18;10.25;;;2.03;;
12591;SDS011;6361;52.120;5.108;2022-10-24T12:19:03;8.00;;;1.52;;
12591;SDS011;6361;52.120;5.108;2022-10-24T12:21:35;9.07;;;2.08;;
12591;SDS011;6361;52.120;5.108;2022-10-24T12:24:03;7.38;;;2.13;;
12591;SDS011;6361;52.120;5.108;2022-10-24T12:26:30;10.80;;;2.28;;
12591;SDS011;6361;52.120;5.108;2022-10-24T12:28:58;10.65;;;2.38;;
12591;SDS011;6361;52.120;5.108;2022-10-24T12:31:26;9.77;;;2.20;;
12591;SDS011;6361;52.120;5.108;2022-10-24T12:44:43;8.93;;;1.92;;
12591;SDS011;6361;52.120;5.108;2022-10-24T12:58:01;6.20;;;1.67;;
12591;SDS011;6361;52.120;5.108;2022-10-24T13:03:22;10.30;;;2.00;;
12591;SDS011;6361;52.120;5.108;2022-10-24T13:06:06;6.35;;;1.88;;
12591;SDS011;6361;52.120;5.108;2022-10-24T13:17:22;10.27;;;2.38;;
12591;SDS011;6361;52.120;5.108;2022-10-24T13:20:19;12.80;;;2.83;;
12591;SDS011;6361;52.120;5.108;2022-10-24T13:22:47;11.73;;;2.83;;
12591;SDS011;6361;52.120;5.108;2022-10-24T13:25:19;8.77;;;2.40;;
12591;SDS011;6361;52.120;5.108;2022-10-24T13:30:43;12.82;;;2.70;;
12591;SDS011;6361;52.120;5.108;2022-10-24T13:36:04;13.40;;;2.63;;
12591;SDS011;6361;52.120;5.108;2022-10-24T13:38:31;10.30;;;2.50;;
12591;SDS011;6361;52.120;5.108;2022-10-24T13:40:58;6.20;;;1.92;;
12591;SDS011;6361;52.120;5.108;2022-10-24T13:43:23;9.07;;;2.50;;
12591;SDS011;6361;52.120;5.108;2022-10-24T13:45:56;9.00;;;2.45;;
12591;SDS011;6361;52.120;5.108;2022-10-24T13:48:29;8.77;;;2.20;;
12591;SDS011;6361;52.120;5.108;2022-10-24T13:56:40;9.20;;;2.03;;
12591;SDS011;6361;52.120;5.108;2022-10-24T14:02:03;7.00;;;2.42;;
12591;SDS011;6361;52.120;5.108;2022-10-24T14:04:31;11.13;;;2.65;;
12591;SDS011;6361;52.120;5.108;2022-10-24T14:07:00;7.32;;;2.40;;
12591;SDS011;6361;52.120;5.108;2022-10-24T14:09:27;12.65;;;2.83;;
12591;SDS011;6361;52.120;5.108;2022-10-24T14:11:52;9.52;;;2.20;;
12591;SDS011;6361;52.120;5.108;2022-10-24T14:14:33;15.32;;;2.90;;
12591;SDS011;6361;52.120;5.108;2022-10-24T14:17:20;14.05;;;2.40;;
12591;SDS011;6361;52.120;5.108;2022-10-24T14:19:50;8.35;;;2.38;;
12591;SDS011;6361;52.120;5.108;2022-10-24T14:22:18;12.55;;;2.75;;
12591;SDS011;6361;52.120;5.108;2022-10-24T14:24:47;10.15;;;2.35;;
12591;SDS011;6361;52.120;5.108;2022-10-24T14:27:13;8.50;;;2.47;;
12591;SDS011;6361;52.120;5.108;2022-10-24T14:29:39;9.00;;;2.75;;
12591;SDS011;6361;52.120;5.108;2022-10-24T14:32:15;8.88;;;2.00;;
12591;SDS011;6361;52.120;5.108;2022-10-24T14:34:40;10.70;;;2.40;;
12591;SDS011;6361;52.120;5.108;2022-10-24T14:39:51;11.85;;;2.35;;
12591;SDS011;6361;52.120;5.108;2022-10-24T14:42:17;11.55;;;2.63;;
12591;SDS011;6361;52.120;5.108;2022-10-24T14:44:43;10.13;;;2.13;;
12591;SDS011;6361;52.120;5.108;2022-10-24T14:49:43;14.35;;;2.10;;
12591;SDS011;6361;52.120;5.108;2022-10-24T14:54:55;9.98;;;2.03;;
12591;SDS011;6361;52.120;5.108;2022-10-24T14:57:50;13.77;;;2.33;;
12591;SDS011;6361;52.120;5.108;2022-10-24T15:00:18;11.85;;;2.55;;
12591;SDS011;6361;52.120;5.108;2022-10-24T15:02:49;11.18;;;2.47;;
12591;SDS011;6361;52.120;5.108;2022-10-24T15:07:44;10.80;;;2.40;;
12591;SDS011;6361;52.120;5.108;2022-10-24T15:17:46;9.45;;;1.80;;
12591;SDS011;6361;52.120;5.108;2022-10-24T15:20:13;8.45;;;1.70;;
12591;SDS011;6361;52.120;5.108;2022-10-24T15:22:44;12.25;;;2.10;;
12591;SDS011;6361;52.120;5.108;2022-10-24T15:25:30;6.93;;;1.63;;
12591;SDS011;6361;52.120;5.108;2022-10-24T15:27:59;9.35;;;1.60;;
12591;SDS011;6361;52.120;5.108;2022-10-24T15:32:53;8.32;;;1.88;;
12591;SDS011;6361;52.120;5.108;2022-10-24T15:35:19;9.48;;;1.63;;
12591;SDS011;6361;52.120;5.108;2022-10-24T15:37:58;8.57;;;1.80;;
12591;SDS011;6361;52.120;5.108;2022-10-24T15:40:29;10.32;;;1.75;;
12591;SDS011;6361;52.120;5.108;2022-10-24T15:42:56;10.80;;;1.90;;
12591;SDS011;6361;52.120;5.108;2022-10-24T15:45:21;12.45;;;2.10;;
12591;SDS011;6361;52.120;5.108;2022-10-24T15:47:47;11.95;;;1.85;;
12591;SDS011;6361;52.120;5.108;2022-10-24T15:50:15;10.13;;;1.77;;
12591;SDS011;6361;52.120;5.108;2022-10-24T15:52:48;7.78;;;1.50;;
12591;SDS011;6361;52.120;5.108;2022-10-24T15:55:20;7.95;;;1.50;;
12591;SDS011;6361;52.120;5.108;2022-10-24T15:57:49;9.95;;;1.90;;
12591;SDS011;6361;52.120;5.108;2022-10-24T16:00:16;9.70;;;1.60;;
12591;SDS011;6361;52.120;5.108;2022-10-24T16:02:44;6.90;;;1.40;;
12591;SDS011;6361;52.120;5.108;2022-10-24T16:05:14;12.90;;;2.15;;
12591;SDS011;6361;52.120;5.108;2022-10-24T16:07:40;9.98;;;1.63;;
12591;SDS011;6361;52.120;5.108;2022-10-24T16:10:06;16.95;;;1.70;;
12591;SDS011;6361;52.120;5.108;2022-10-24T16:12:31;10.63;;;1.65;;
12591;SDS011;6361;52.120;5.108;2022-10-24T16:14:57;14.13;;;1.92;;
12591;SDS011;6361;52.120;5.108;2022-10-24T16:17:22;11.98;;;2.40;;
12591;SDS011;6361;52.120;5.108;2022-10-24T16:19:47;12.65;;;2.00;;
12591;SDS011;6361;52.120;5.108;2022-10-24T16:22:14;17.08;;;2.58;;
12591;SDS011;6361;52.120;5.108;2022-10-24T16:24:40;13.75;;;2.40;;
12591;SDS011;6361;52.120;5.108;2022-10-24T16:27:05;22.08;;;2.58;;
12591;SDS011;6361;52.120;5.108;2022-10-24T16:29:31;19.27;;;2.83;;
12591;SDS011;6361;52.120;5.108;2022-10-24T16:31:56;18.20;;;2.72;;
12591;SDS011;6361;52.120;5.108;2022-10-24T16:34:22;15.45;;;2.33;;
12591;SDS011;6361;52.120;5.108;2022-10-24T16:36:51;15.65;;;2.58;;
12591;SDS011;6361;52.120;5.108;2022-10-24T16:39:18;16.55;;;2.45;;
12591;SDS011;6361;52.120;5.108;2022-10-24T16:41:43;21.55;;;3.00;;
12591;SDS011;6361;52.120;5.108;2022-10-24T16:44:10;14.32;;;2.30;;
12591;SDS011;6361;52.120;5.108;2022-10-24T16:46:36;15.27;;;2.30;;
12591;SDS011;6361;52.120;5.108;2022-10-24T16:49:01;13.68;;;2.58;;
12591;SDS011;6361;52.120;5.108;2022-10-24T16:51:27;19.13;;;2.67;;
12591;SDS011;6361;52.120;5.108;2022-10-24T16:53:57;13.80;;;2.63;;
12591;SDS011;6361;52.120;5.108;2022-10-24T16:56:23;16.98;;;2.90;;
12591;SDS011;6361;52.120;5.108;2022-10-24T16:58:49;13.75;;;3.53;;
12591;SDS011;6361;52.120;5.108;2022-10-24T17:01:14;14.85;;;3.00;;
12591;SDS011;6361;52.120;5.108;2022-10-24T17:03:40;21.35;;;3.13;;
12591;SDS011;6361;52.120;5.108;2022-10-24T17:06:07;16.10;;;2.97;;
12591;SDS011;6361;52.120;5.108;2022-10-24T17:08:32;13.02;;;2.92;;
12591;SDS011;6361;52.120;5.108;2022-10-24T17:10:58;16.52;;;3.00;;
12591;SDS011;6361;52.120;5.108;2022-10-24T17:13:24;18.77;;;3.25;;
12591;SDS011;6361;52.120;5.108;2022-10-24T17:15:50;12.32;;;3.05;;
12591;SDS011;6361;52.120;5.108;2022-10-24T17:18:19;19.98;;;3.20;;
12591;SDS011;6361;52.120;5.108;2022-10-24T17:20:46;17.23;;;3.08;;
12591;SDS011;6361;52.120;5.108;2022-10-24T17:23:13;16.67;;;2.75;;
12591;SDS011;6361;52.120;5.108;2022-10-24T17:25:43;18.60;;;3.28;;
12591;SDS011;6361;52.120;5.108;2022-10-24T17:28:13;14.73;;;3.40;;
12591;SDS011;6361;52.120;5.108;2022-10-24T17:30:39;17.50;;;3.80;;
12591;SDS011;6361;52.120;5.108;2022-10-24T17:33:05;14.10;;;3.00;;
12591;SDS011;6361;52.120;5.108;2022-10-24T17:35:35;16.55;;;3.30;;
12591;SDS011;6361;52.120;5.108;2022-10-24T17:38:04;17.67;;;3.17;;
12591;SDS011;6361;52.120;5.108;2022-10-24T17:40:44;16.15;;;3.25;;
12591;SDS011;6361;52.120;5.108;2022-10-24T17:43:21;13.13;;;3.38;;
12591;SDS011;6361;52.120;5.108;2022-10-24T17:45:49;17.23;;;3.97;;